Time;durP1;ratioP1;P1;durP2;ratioP2;P2;SDS_P1;SDS_P2;PMS_P1;PMS_P2;Temp;Humidity;BMP_temperature;BMP_pressure;BME280_temperature;BME280_humidity;BME280_pressure;Samples;Min_cycle;Max_cycle;Signal;HPM_P1;HPM_P2
2022/09/26 00:02:52;;;;;;;1.48;1.08;;;15.00;94.10;;;;;;10210849;29;20136;-65
2022/09/26 00:07:53;;;;;;;1.40;0.98;;;14.90;94.10;;;;;;10222813;29;20036;-61
2022/09/26 00:12:55;;;;;;;2.22;1.10;;;14.90;94.10;;;;;;10206818;29;20496;-64
2022/09/26 00:17:55;;;;;;;3.17;1.45;;;14.90;94.10;;;;;;10214160;29;20327;-61
2022/09/26 00:22:56;;;;;;;1.88;1.20;;;14.90;94.10;;;;;;10219554;29;20077;-61
2022/09/26 00:27:57;;;;;;;2.03;1.10;;;14.90;94.10;;;;;;10216514;29;20063;-61
2022/09/26 00:32:58;;;;;;;1.40;0.98;;;14.90;94.10;;;;;;10203481;29;20035;-61
2022/09/26 00:37:58;;;;;;;2.17;1.30;;;14.90;94.10;;;;;;10208206;29;20389;-62
2022/09/26 00:42:59;;;;;;;2.33;1.10;;;14.90;94.00;;;;;;10207008;28;20038;-62
2022/09/26 00:48:03;;;;;;;1.75;0.93;;;14.80;94.00;;;;;;10208802;29;20023;-61
2022/09/26 00:53:17;;;;;;;1.63;1.02;;;14.90;94.00;;;;;;10201271;29;20039;-62
2022/09/26 00:58:27;;;;;;;1.42;1.00;;;14.90;94.00;;;;;;10209310;29;20106;-61
2022/09/26 01:03:29;;;;;;;1.95;1.10;;;14.80;94.00;;;;;;10198272;29;20027;-69
2022/09/26 01:08:35;;;;;;;2.22;1.10;;;14.80;94.00;;;;;;10205791;29;20103;-61
2022/09/26 01:13:38;;;;;;;3.30;1.10;;;14.80;94.00;;;;;;10201383;29;20032;-62
2022/09/26 01:18:39;;;;;;;1.75;1.10;;;14.80;93.90;;;;;;10215113;29;20461;-61
2022/09/26 01:23:56;;;;;;;2.78;1.00;;;14.80;93.90;;;;;;10190520;29;20050;-61
2022/09/26 01:29:15;;;;;;;2.08;1.00;;;14.80;93.90;;;;;;10207025;29;20458;-61
2022/09/26 01:34:32;;;;;;;2.67;1.17;;;14.80;93.90;;;;;;10211469;29;20045;-61
2022/09/26 01:39:53;;;;;;;1.55;0.80;;;14.80;93.90;;;;;;10208827;29;20043;-61
2022/09/26 01:45:06;;;;;;;0.90;0.88;;;14.70;93.90;;;;;;10209884;29;20030;-62
2022/09/26 01:50:15;;;;;;;1.17;0.90;;;14.70;93.90;;;;;;10205014;29;20167;-61
2022/09/26 01:55:23;;;;;;;2.40;0.93;;;14.70;93.90;;;;;;10201457;29;20042;-61
2022/09/26 02:00:25;;;;;;;1.30;1.08;;;14.70;93.90;;;;;;10195528;29;20027;-61
2022/09/26 02:05:34;;;;;;;1.48;0.70;;;14.70;93.90;;;;;;10208843;29;20051;-61
2022/09/26 02:10:50;;;;;;;0.90;0.60;;;14.70;93.90;;;;;;10211615;29;20499;-61
2022/09/26 02:15:57;;;;;;;4.00;1.13;;;14.70;93.90;;;;;;10202497;29;20058;-62
2022/09/26 02:21:07;;;;;;;1.58;1.00;;;14.70;93.90;;;;;;10200071;29;20027;-61
2022/09/26 02:26:07;;;;;;;2.55;1.27;;;14.70;93.90;;;;;;10199603;29;20044;-61
2022/09/26 02:31:10;;;;;;;1.98;1.00;;;14.70;93.90;;;;;;10203985;29;20046;-61
2022/09/26 02:36:11;;;;;;;1.85;0.95;;;14.70;93.90;;;;;;10197105;29;20036;-61
2022/09/26 02:41:30;;;;;;;2.00;1.05;;;14.70;93.90;;;;;;10194308;29;20579;-62
2022/09/26 02:46:56;;;;;;;1.40;1.00;;;14.70;93.90;;;;;;10202132;29;20389;-61
2022/09/26 02:52:24;;;;;;;1.73;0.82;;;14.70;93.90;;;;;;10192071;29;20050;-61
2022/09/26 02:57:47;;;;;;;3.90;1.23;;;14.70;94.00;;;;;;10203800;29;20027;-62
2022/09/26 03:03:24;;;;;;;3.08;1.02;;;14.70;94.00;;;;;;10194282;29;20028;-61
2022/09/26 03:08:28;;;;;;;2.92;1.15;;;14.70;94.00;;;;;;10182847;29;20445;-61
2022/09/26 03:13:34;;;;;;;1.27;0.90;;;14.60;94.00;;;;;;10201901;29;20115;-63
2022/09/26 03:18:52;;;;;;;1.25;0.90;;;14.60;94.00;;;;;;10201027;29;20606;-64
2022/09/26 03:23:55;;;;;;;2.53;0.88;;;14.60;94.10;;;;;;10211339;29;20582;-61
2022/09/26 03:28:55;;;;;;;3.00;1.40;;;14.60;94.10;;;;;;10192155;29;20087;-62
2022/09/26 03:33:56;;;;;;;2.03;0.90;;;14.60;94.10;;;;;;10206769;29;20445;-62
2022/09/26 03:38:57;;;;;;;2.90;1.00;;;14.60;94.10;;;;;;10202508;29;20024;-61
2022/09/26 03:43:57;;;;;;;1.63;1.10;;;14.60;94.20;;;;;;10216294;29;21908;-61
2022/09/26 03:48:58;;;;;;;1.20;0.85;;;14.60;94.20;;;;;;10202270;29;20103;-61
2022/09/26 03:53:59;;;;;;;1.42;1.10;;;14.60;94.20;;;;;;10199069;29;20127;-61
2022/09/26 03:59:00;;;;;;;2.13;1.00;;;14.60;94.20;;;;;;10203613;29;20039;-61
2022/09/26 04:04:01;;;;;;;2.55;0.95;;;14.60;94.20;;;;;;10203156;29;20055;-62
2022/09/26 04:09:02;;;;;;;2.83;1.00;;;14.60;94.20;;;;;;10214430;29;20043;-62
2022/09/26 04:14:03;;;;;;;3.03;1.10;;;14.60;94.30;;;;;;10193830;29;20467;-61
2022/09/26 04:19:03;;;;;;;1.58;1.15;;;14.50;94.20;;;;;;10208702;29;20515;-61
2022/09/26 04:24:04;;;;;;;2.45;1.10;;;14.50;94.30;;;;;;10200521;29;20040;-65
2022/09/26 04:29:05;;;;;;;3.25;1.20;;;14.50;94.30;;;;;;10188011;29;20024;-62
2022/09/26 04:34:08;;;;;;;2.97;1.10;;;14.50;94.30;;;;;;10206479;29;20044;-61
2022/09/26 04:39:08;;;;;;;1.92;1.20;;;14.50;94.30;;;;;;10189600;29;20027;-61
2022/09/26 04:44:09;;;;;;;1.80;1.20;;;14.50;94.30;;;;;;10213141;29;20420;-61
2022/09/26 04:49:10;;;;;;;2.58;1.20;;;14.50;94.30;;;;;;10208670;29;20036;-61
2022/09/26 04:54:11;;;;;;;1.35;0.90;;;14.50;94.30;;;;;;10206429;29;20063;-61
2022/09/26 04:59:12;;;;;;;3.13;1.17;;;14.50;94.30;;;;;;10206573;29;20107;-65
2022/09/26 05:04:13;;;;;;;2.50;1.30;;;14.50;94.30;;;;;;10206768;29;20054;-61
2022/09/26 05:09:14;;;;;;;1.88;1.27;;;14.50;94.30;;;;;;10211746;29;20472;-61
2022/09/26 05:14:15;;;;;;;2.33;1.20;;;14.40;94.30;;;;;;10216444;29;20044;-61
2022/09/26 05:19:15;;;;;;;3.03;1.15;;;14.40;94.30;;;;;;10207267;29;20114;-61
2022/09/26 05:29:36;;;;;;;3.38;1.30;;;14.40;94.30;;;;;;10198898;29;20024;-63
2022/09/26 05:34:36;;;;;;;3.25;1.20;;;14.40;94.30;;;;;;10210819;29;20047;-61
2022/09/26 05:45:00;;;;;;;1.52;1.10;;;14.40;94.30;;;;;;10201218;29;20438;-61
2022/09/26 05:50:08;;;;;;;1.85;1.20;;;14.40;94.30;;;;;;10198474;29;20031;-61
2022/09/26 05:55:10;;;;;;;3.73;1.20;;;14.40;94.30;;;;;;10203645;29;20047;-62
2022/09/26 06:00:13;;;;;;;3.53;1.40;;;14.40;94.30;;;;;;10209361;29;20110;-62
2022/09/26 06:05:14;;;;;;;2.05;1.30;;;14.40;94.20;;;;;;10203183;29;20603;-64
2022/09/26 06:10:14;;;;;;;1.83;1.10;;;14.30;94.20;;;;;;10208382;29;20103;-70
2022/09/26 06:15:16;;;;;;;1.95;1.38;;;14.30;94.20;;;;;;10194055;29;20050;-62
2022/09/26 06:20:16;;;;;;;4.05;1.35;;;14.30;94.20;;;;;;10188056;29;20023;-61
2022/09/26 06:25:17;;;;;;;2.28;1.10;;;14.30;94.20;;;;;;10209994;29;20753;-62
2022/09/26 06:30:18;;;;;;;2.13;1.35;;;14.30;94.20;;;;;;10182682;29;20044;-65
2022/09/26 06:35:20;;;;;;;2.03;1.30;;;14.30;94.20;;;;;;10199787;29;20615;-63
2022/09/26 06:40:21;;;;;;;1.85;1.27;;;14.30;94.10;;;;;;10205882;29;20028;-62
2022/09/26 06:45:23;;;;;;;2.92;1.10;;;14.30;94.10;;;;;;10210967;29;20671;-63
2022/09/26 06:50:23;;;;;;;1.90;1.13;;;14.30;94.10;;;;;;10204061;29;20035;-61
2022/09/26 06:55:24;;;;;;;2.08;1.55;;;14.30;94.10;;;;;;10189203;29;20914;-62
2022/09/26 07:00:25;;;;;;;1.23;0.88;;;14.30;94.10;;;;;;10138387;29;20804;-62
2022/09/26 07:05:27;;;;;;;1.70;0.98;;;14.30;94.10;;;;;;10129546;29;20047;-65
2022/09/26 07:10:29;;;;;;;1.55;1.05;;;14.30;94.00;;;;;;10125101;29;20039;-62
2022/09/26 07:15:31;;;;;;;2.17;1.23;;;14.30;94.00;;;;;;10172105;29;20073;-61
2022/09/26 07:20:36;;;;;;;3.05;1.30;;;14.20;94.10;;;;;;10172450;29;20126;-68
2022/09/26 07:25:40;;;;;;;1.58;0.95;;;14.20;94.00;;;;;;10125490;29;20032;-61
2022/09/26 07:30:41;;;;;;;2.33;0.90;;;14.20;94.00;;;;;;10131589;29;20058;-62
2022/09/26 07:35:44;;;;;;;4.28;1.25;;;14.20;94.00;;;;;;10129284;29;20043;-62
2022/09/26 07:40:45;;;;;;;1.55;1.10;;;14.20;94.00;;;;;;10137007;29;20031;-62
2022/09/26 07:51:10;;;;;;;3.03;1.30;;;14.30;94.00;;;;;;10124391;28;20045;-62
2022/09/26 07:56:11;;;;;;;2.17;1.20;;;14.20;93.90;;;;;;10114877;29;20043;-61
2022/09/26 08:01:14;;;;;;;1.35;0.85;;;14.30;93.90;;;;;;10099928;29;20602;-62
2022/09/26 08:06:19;;;;;;;2.25;1.20;;;14.30;93.90;;;;;;10137901;29;20089;-62
2022/09/26 08:11:21;;;;;;;1.92;1.00;;;14.30;93.90;;;;;;10126376;29;20131;-63
2022/09/26 08:16:22;;;;;;;2.92;1.20;;;14.40;93.90;;;;;;10132334;29;20043;-62
2022/09/26 08:21:23;;;;;;;3.67;1.17;;;14.30;93.90;;;;;;10113836;29;20836;-62
2022/09/26 08:26:24;;;;;;;1.45;0.90;;;14.30;93.80;;;;;;10135488;29;20040;-66
2022/09/26 08:31:24;;;;;;;1.85;1.00;;;14.30;93.80;;;;;;10130346;29;20043;-62
2022/09/26 08:36:26;;;;;;;1.25;1.00;;;14.30;93.80;;;;;;10121090;29;20914;-63
2022/09/26 08:41:55;;;;;;;2.55;1.27;;;14.30;93.80;;;;;;10136514;29;20035;-66
2022/09/26 08:47:01;;;;;;;2.70;1.20;;;14.30;93.80;;;;;;10113246;29;20032;-62
2022/09/26 08:52:16;;;;;;;3.78;1.40;;;14.30;93.80;;;;;;10123638;29;20966;-62
2022/09/26 08:57:30;;;;;;;2.47;1.23;;;14.40;93.80;;;;;;10125777;29;20143;-63
2022/09/26 09:02:43;;;;;;;1.70;0.88;;;14.40;93.80;;;;;;10133220;29;20039;-62
2022/09/26 09:07:48;;;;;;;2.53;1.00;;;14.40;93.80;;;;;;10129856;29;20051;-63
2022/09/26 09:13:17;;;;;;;2.38;1.42;;;14.30;93.70;;;;;;10126812;29;20058;-64
2022/09/26 09:18:33;;;;;;;2.50;1.20;;;14.40;93.70;;;;;;10126822;29;20062;-62
2022/09/26 09:24:07;;;;;;;4.28;0.85;;;14.40;93.70;;;;;;10132463;29;20139;-62
2022/09/26 09:29:17;;;;;;;3.25;1.00;;;14.40;93.70;;;;;;10127557;29;20040;-63
2022/09/26 09:34:48;;;;;;;1.50;0.82;;;14.40;93.70;;;;;;10127187;29;20070;-62
2022/09/26 09:39:52;;;;;;;3.70;0.98;;;14.40;93.70;;;;;;10118590;29;20142;-63
2022/09/26 09:44:59;;;;;;;2.05;0.98;;;14.40;93.80;;;;;;10130231;29;20016;-66
2022/09/26 09:50:01;;;;;;;1.63;0.90;;;14.40;93.80;;;;;;10132671;29;20371;-62
2022/09/26 09:55:19;;;;;;;1.67;0.90;;;14.40;93.80;;;;;;10132644;29;20471;-63
2022/09/26 10:00:26;;;;;;;1.13;1.00;;;14.40;93.80;;;;;;10106881;29;20489;-63
2022/09/26 10:05:44;;;;;;;3.50;1.48;;;14.40;93.80;;;;;;10124241;29;20086;-63
2022/09/26 10:10:59;;;;;;;4.00;0.95;;;14.40;93.90;;;;;;10130950;29;20421;-63
2022/09/26 10:16:03;;;;;;;3.03;1.63;;;14.40;93.90;;;;;;10131722;29;20059;-62
2022/09/26 10:21:11;;;;;;;1.85;1.35;;;14.40;93.90;;;;;;10121316;29;20034;-62
2022/09/26 10:26:15;;;;;;;1.42;1.13;;;14.40;93.90;;;;;;10131971;29;20055;-62
2022/09/26 10:31:28;;;;;;;3.05;1.75;;;14.40;94.00;;;;;;10124555;29;20035;-68
2022/09/26 10:36:36;;;;;;;2.83;1.00;;;14.40;94.00;;;;;;10129959;29;20039;-62
2022/09/26 10:41:42;;;;;;;3.17;1.13;;;14.40;94.10;;;;;;10142536;29;20023;-63
2022/09/26 10:46:46;;;;;;;2.60;1.10;;;14.40;94.10;;;;;;10125557;29;20039;-62
2022/09/26 10:51:57;;;;;;;2.97;1.25;;;14.40;94.10;;;;;;10127554;29;20133;-62
2022/09/26 10:56:58;;;;;;;1.33;1.00;;;14.40;94.10;;;;;;10115305;29;20019;-62
2022/09/26 11:02:02;;;;;;;2.47;1.25;;;14.40;94.20;;;;;;10142614;29;20031;-62
2022/09/26 11:07:06;;;;;;;1.90;1.20;;;14.40;94.20;;;;;;10133169;29;20047;-62
2022/09/26 11:12:53;;;;;;;2.10;1.00;;;14.40;94.30;;;;;;10127893;29;20138;-64
2022/09/26 11:17:54;;;;;;;2.50;1.00;;;14.40;94.40;;;;;;10100820;29;20113;-63
2022/09/26 11:23:23;;;;;;;1.60;1.00;;;14.40;94.30;;;;;;10131328;29;20269;-62
2022/09/26 11:28:33;;;;;;;2.10;1.40;;;14.30;94.40;;;;;;10133671;28;20031;-62
2022/09/26 11:33:34;;;;;;;2.00;1.20;;;14.40;94.40;;;;;;10133943;29;20592;-62
2022/09/26 11:38:40;;;;;;;2.20;1.10;;;14.40;94.40;;;;;;10130264;29;20035;-62
2022/09/26 11:43:50;;;;;;;3.42;1.10;;;14.40;94.50;;;;;;10136624;29;20039;-62
2022/09/26 11:48:59;;;;;;;2.15;0.90;;;14.40;94.60;;;;;;10137939;29;20031;-62
2022/09/26 11:54:22;;;;;;;2.35;1.10;;;14.40;94.60;;;;;;10135380;29;20200;-63
2022/09/26 11:59:57;;;;;;;1.67;1.05;;;14.40;94.70;;;;;;10137797;29;20127;-64
2022/09/26 12:05:15;;;;;;;2.35;0.90;;;14.40;94.70;;;;;;10142563;29;20335;-62
2022/09/26 12:10:27;;;;;;;1.83;0.70;;;14.40;94.70;;;;;;10148913;29;20582;-62
2022/09/26 12:16:00;;;;;;;2.90;1.20;;;14.40;94.70;;;;;;10130595;29;20222;-62
2022/09/26 12:21:15;;;;;;;3.28;0.95;;;14.40;94.80;;;;;;10148586;23;20475;-64
2022/09/26 12:26:58;;;;;;;1.67;0.80;;;14.40;94.80;;;;;;10104062;29;20152;-62
2022/09/26 12:32:23;;;;;;;1.20;1.00;;;14.40;94.90;;;;;;10119287;29;20046;-62
2022/09/26 12:37:46;;;;;;;2.05;0.90;;;14.40;94.80;;;;;;10118211;29;20143;-61
2022/09/26 12:42:59;;;;;;;1.90;0.80;;;14.40;94.80;;;;;;10124474;29;20650;-62
2022/09/26 12:48:30;;;;;;;1.02;0.75;;;14.40;94.80;;;;;;10122765;29;20038;-62
2022/09/26 12:53:42;;;;;;;1.23;0.88;;;14.40;94.90;;;;;;10120502;29;20494;-62
2022/09/26 12:58:58;;;;;;;1.10;0.70;;;14.40;94.80;;;;;;10118230;29;20032;-62
2022/09/26 13:04:19;;;;;;;1.05;0.77;;;14.40;94.80;;;;;;10115649;29;20118;-63
2022/09/26 13:09:50;;;;;;;1.48;0.85;;;14.40;95.00;;;;;;10122011;29;20775;-68
2022/09/26 13:15:10;;;;;;;1.80;0.90;;;14.90;95.00;;;;;;10049707;29;20052;-62
2022/09/26 13:20:23;;;;;;;2.05;0.68;;;14.50;94.90;;;;;;10115094;29;20687;-63
2022/09/26 13:25:48;;;;;;;0.88;0.70;;;14.50;94.90;;;;;;10114079;29;20356;-62
2022/09/26 13:30:56;;;;;;;1.33;0.75;;;14.60;94.90;;;;;;10115756;29;20463;-62
2022/09/26 13:36:00;;;;;;;1.08;0.60;;;14.60;94.80;;;;;;10115036;29;20098;-62
2022/09/26 13:41:19;;;;;;;1.00;0.90;;;14.60;94.80;;;;;;10098047;29;20036;-61
2022/09/26 13:46:41;;;;;;;0.90;0.70;;;14.60;94.90;;;;;;10111257;29;20505;-62
2022/09/26 13:52:00;;;;;;;1.15;0.60;;;14.70;94.90;;;;;;10116977;29;20040;-62
2022/09/26 13:57:33;;;;;;;2.13;0.70;;;14.70;94.90;;;;;;10114935;29;20090;-62
2022/09/26 14:02:34;;;;;;;0.88;0.70;;;14.60;95.00;;;;;;10112600;29;20955;-62
2022/09/26 14:13:14;;;;;;;0.70;0.60;;;14.60;95.00;;;;;;10113317;29;20119;-63
2022/09/26 14:18:52;;;;;;;1.27;0.70;;;14.60;95.00;;;;;;10115182;29;20126;-62
2022/09/26 14:24:11;;;;;;;;;;;14.60;95.10;;;;;;10071120;29;20051;-68
2022/09/26 14:29:32;;;;;;;2.63;0.80;;;14.60;95.20;;;;;;10076170;29;20391;-63
2022/09/26 14:34:44;;;;;;;1.77;0.70;;;14.60;95.10;;;;;;10073228;29;20044;-65
2022/09/26 14:39:45;;;;;;;0.63;0.60;;;14.60;95.10;;;;;;10070597;29;20035;-65
2022/09/26 14:45:01;;;;;;;1.05;0.80;;;14.60;95.10;;;;;;10073764;29;20152;-62
2022/09/26 14:50:05;;;;;;;1.00;0.70;;;14.60;95.20;;;;;;10077499;29;20553;-68
2022/09/26 14:55:06;;;;;;;0.52;0.50;;;14.60;95.10;;;;;;10071013;29;20094;-61
2022/09/26 15:00:52;;;;;;;1.13;0.80;;;14.60;95.20;;;;;;10070793;29;20023;-63
2022/09/26 15:05:53;;;;;;;0.75;0.70;;;14.60;95.30;;;;;;10074282;29;20044;-61
2022/09/26 15:10:57;;;;;;;1.08;0.98;;;14.60;95.20;;;;;;10074834;29;20032;-72
2022/09/26 15:16:08;;;;;;;2.22;0.77;;;14.60;95.20;;;;;;10079535;29;20107;-65
2022/09/26 15:21:39;;;;;;;1.20;0.82;;;14.60;95.30;;;;;;10076259;29;20051;-62
2022/09/26 15:26:42;;;;;;;1.23;0.70;;;14.60;95.30;;;;;;10114279;29;20359;-62
2022/09/26 15:31:44;;;;;;;2.05;0.80;;;14.60;95.30;;;;;;10113423;29;20588;-63
2022/09/26 15:36:51;;;;;;;0.73;0.70;;;14.60;95.30;;;;;;10117286;29;20226;-62
2022/09/26 15:47:31;;;;;;;1.13;0.68;;;14.40;95.20;;;;;;10114949;29;20497;-62
2022/09/26 15:52:34;;;;;;;0.73;0.70;;;14.60;95.40;;;;;;10130362;28;20174;-65
2022/09/26 15:57:34;;;;;;;0.68;0.63;;;14.60;95.40;;;;;;10151445;28;20269;-65
2022/09/26 16:02:36;;;;;;;1.00;0.80;;;14.60;95.40;;;;;;10154806;28;20046;-63
2022/09/26 16:07:37;;;;;;;1.23;0.60;;;14.60;95.40;;;;;;10159853;28;20035;-62
2022/09/26 16:12:39;;;;;;;0.60;0.60;;;14.60;95.40;;;;;;10152285;28;20047;-62
2022/09/26 16:17:44;;;;;;;1.00;0.77;;;14.60;95.40;;;;;;10128501;28;20910;-62
2022/09/26 16:22:50;;;;;;;1.08;0.70;;;14.60;95.50;;;;;;10156689;28;20150;-62
2022/09/26 16:27:59;;;;;;;1.00;0.75;;;14.30;95.50;;;;;;10157010;28;20035;-63
2022/09/26 16:33:06;;;;;;;0.73;0.60;;;14.60;95.60;;;;;;10148053;28;20098;-62
2022/09/26 16:38:28;;;;;;;1.63;0.80;;;14.60;95.50;;;;;;10159366;28;20445;-62
2022/09/26 16:43:30;;;;;;;0.60;0.60;;;14.60;95.60;;;;;;10160454;28;20033;-65
2022/09/26 16:48:37;;;;;;;0.52;0.50;;;14.60;95.50;;;;;;10148152;28;20290;-61
2022/09/26 16:53:38;;;;;;;0.60;0.60;;;14.60;95.60;;;;;;10170752;28;20074;-62
2022/09/26 16:58:47;;;;;;;1.15;0.70;;;14.60;95.60;;;;;;10165162;28;20441;-62
2022/09/26 17:03:47;;;;;;;0.75;0.63;;;14.60;95.60;;;;;;10153453;28;20575;-62
2022/09/26 17:08:48;;;;;;;2.63;0.80;;;14.60;95.60;;;;;;10155953;28;20032;-62
2022/09/26 17:13:49;;;;;;;0.60;0.60;;;14.50;95.60;;;;;;10159103;28;20512;-62
2022/09/26 17:18:50;;;;;;;1.30;0.73;;;14.50;95.60;;;;;;10159253;28;20871;-62
2022/09/26 17:23:51;;;;;;;1.35;0.80;;;14.50;95.70;;;;;;10160534;28;20495;-63
2022/09/26 17:28:52;;;;;;;1.15;0.70;;;14.50;95.70;;;;;;10159606;28;20035;-63
2022/09/26 17:33:53;;;;;;;0.98;0.60;;;14.40;95.70;;;;;;10175803;28;20050;-63
2022/09/26 17:38:58;;;;;;;1.48;0.88;;;14.50;95.70;;;;;;10149569;28;20028;-66
2022/09/26 17:43:59;;;;;;;1.15;0.90;;;14.50;95.70;;;;;;10151285;28;20031;-62
2022/09/26 17:49:03;;;;;;;1.75;0.85;;;14.50;95.70;;;;;;10154980;28;20760;-63
2022/09/26 17:54:06;;;;;;;1.92;0.80;;;14.50;95.80;;;;;;10198741;28;20043;-62
2022/09/26 17:59:20;;;;;;;3.05;0.80;;;14.50;95.80;;;;;;10234049;28;20420;-61
2022/09/26 18:04:23;;;;;;;2.15;0.90;;;14.50;95.80;;;;;;10232672;28;20043;-61
2022/09/26 18:09:30;;;;;;;2.42;0.70;;;14.50;95.80;;;;;;10237678;28;20035;-61
2022/09/26 18:14:32;;;;;;;1.70;0.93;;;14.50;95.80;;;;;;10234431;28;20058;-62
2022/09/26 18:19:36;;;;;;;1.30;0.80;;;14.40;95.80;;;;;;10233115;28;20046;-62
2022/09/26 18:24:37;;;;;;;2.30;0.90;;;14.50;95.80;;;;;;10235444;28;20595;-62
2022/09/26 18:29:41;;;;;;;1.25;0.80;;;14.50;95.80;;;;;;10234343;28;20039;-62
2022/09/26 18:34:41;;;;;;;1.55;0.82;;;14.40;95.80;;;;;;10233539;28;20065;-66
2022/09/26 18:39:42;;;;;;;2.10;1.00;;;14.40;95.80;;;;;;10233012;28;20024;-63
2022/09/26 18:44:43;;;;;;;1.38;0.82;;;14.40;95.80;;;;;;10229360;28;20055;-62
2022/09/26 18:49:46;;;;;;;1.20;0.95;;;14.40;95.80;;;;;;10232370;28;20662;-62
2022/09/26 18:58:22;;;;;;;2.05;0.95;;;14.20;95.80;;;;;;10232755;28;20048;-61
2022/09/26 19:00:08;;;;;;;1.75;0.95;;;14.40;95.80;;;;;;10233526;28;20039;-64
2022/09/26 19:05:14;;;;;;;2.75;1.00;;;14.40;95.80;;;;;;10236006;28;20129;-63
2022/09/26 19:10:16;;;;;;;2.75;0.90;;;14.40;96.00;;;;;;10234056;28;20023;-62
2022/09/26 19:15:17;;;;;;;1.42;0.95;;;14.40;95.80;;;;;;10232899;28;20043;-66
2022/09/26 19:20:17;;;;;;;2.13;0.98;;;14.40;95.90;;;;;;10233393;28;20051;-62
2022/09/26 19:25:18;;;;;;;2.08;0.90;;;14.40;95.90;;;;;;10236707;28;20363;-62
2022/09/26 19:30:20;;;;;;;1.58;0.90;;;14.30;95.80;;;;;;10236618;28;20027;-62
2022/09/26 19:35:29;;;;;;;1.52;0.90;;;14.30;95.80;;;;;;10233653;28;20039;-66
2022/09/26 19:40:29;;;;;;;2.30;1.08;;;14.30;95.80;;;;;;10232983;28;20047;-62
2022/09/26 19:45:33;;;;;;;2.47;1.23;;;14.30;95.80;;;;;;10234584;28;20516;-64
2022/09/26 19:50:37;;;;;;;2.13;1.10;;;14.30;95.80;;;;;;10236617;28;20042;-66
2022/09/26 19:55:38;;;;;;;3.00;1.92;;;14.30;95.80;;;;;;10240895;28;20059;-66
2022/09/26 20:00:43;;;;;;;2.50;1.00;;;14.30;95.90;;;;;;10241470;28;20443;-61
2022/09/26 20:05:45;;;;;;;2.30;0.98;;;14.20;95.90;;;;;;10235485;28;20089;-62
2022/09/26 20:10:50;;;;;;;3.15;1.25;;;14.30;95.90;;;;;;10237487;28;20360;-62
2022/09/26 20:15:51;;;;;;;1.65;0.93;;;14.30;95.90;;;;;;10238411;28;20042;-62
2022/09/26 20:20:54;;;;;;;2.78;1.15;;;14.30;95.90;;;;;;10237987;28;20047;-62
2022/09/26 20:25:55;;;;;;;3.40;1.20;;;14.20;95.80;;;;;;10232967;28;20027;-63
2022/09/26 20:30:57;;;;;;;2.25;1.00;;;14.20;95.80;;;;;;10237118;28;20039;-61
2022/09/26 20:36:03;;;;;;;4.40;1.15;;;14.20;95.80;;;;;;10239929;28;20090;-63
2022/09/26 20:41:10;;;;;;;4.32;1.38;;;14.20;95.90;;;;;;10240912;28;20023;-62
2022/09/26 20:46:12;;;;;;;2.33;1.10;;;14.20;95.90;;;;;;10235002;28;20058;-62
2022/09/26 20:51:33;;;;;;;3.42;1.00;;;14.20;96.10;;;;;;10235191;28;20063;-62
2022/09/26 20:56:35;;;;;;;3.70;1.42;;;14.20;96.20;;;;;;10235075;28;20035;-62
2022/09/26 21:01:36;;;;;;;0.93;0.70;;;14.20;95.90;;;;;;10217419;28;20050;-62
2022/09/26 21:06:37;;;;;;;3.03;1.00;;;14.20;95.90;;;;;;10239884;28;20325;-65
2022/09/26 21:11:40;;;;;;;1.58;0.82;;;14.20;96.20;;;;;;10239386;28;20044;-63
2022/09/26 21:16:50;;;;;;;2.65;0.90;;;14.20;95.90;;;;;;10234432;28;20044;-62
2022/09/26 21:21:51;;;;;;;2.17;1.00;;;14.20;95.90;;;;;;10234004;28;20075;-62
2022/09/26 21:26:52;;;;;;;5.18;1.05;;;14.20;95.90;;;;;;10236696;28;20114;-63
2022/09/26 21:31:55;;;;;;;1.67;0.80;;;14.20;95.90;;;;;;10237728;28;20424;-61
2022/09/26 21:36:57;;;;;;;2.13;0.70;;;14.20;95.90;;;;;;10217144;28;20027;-62
2022/09/26 21:42:03;;;;;;;1.35;0.80;;;14.20;95.90;;;;;;10236140;28;20035;-62
2022/09/26 21:47:03;;;;;;;1.52;0.70;;;14.20;96.00;;;;;;10235115;28;20062;-62
2022/09/26 21:52:13;;;;;;;1.85;0.77;;;14.20;96.00;;;;;;10236701;28;20046;-61
2022/09/26 21:57:22;;;;;;;3.13;0.88;;;14.20;96.00;;;;;;10235859;28;20034;-62
2022/09/26 22:02:24;;;;;;;2.67;0.70;;;14.20;96.00;;;;;;10232246;28;20086;-61
2022/09/26 22:07:25;;;;;;;4.20;0.80;;;14.20;96.00;;;;;;10236514;28;20061;-62
2022/09/26 22:12:26;;;;;;;1.48;0.60;;;14.20;96.00;;;;;;10214617;28;20571;-60
2022/09/26 22:17:26;;;;;;;1.58;0.70;;;14.10;96.00;;;;;;10235256;28;20015;-64
2022/09/26 22:22:27;;;;;;;1.77;0.43;;;14.10;96.00;;;;;;10233104;28;20051;-62
2022/09/26 22:27:29;;;;;;;1.77;0.82;;;14.10;96.00;;;;;;10233853;28;20381;-62
2022/09/26 22:32:30;;;;;;;2.05;0.60;;;14.10;96.00;;;;;;10236366;28;20122;-62
2022/09/26 22:37:30;;;;;;;4.88;0.75;;;14.10;96.00;;;;;;10234481;28;20019;-62
2022/09/26 22:42:31;;;;;;;1.95;0.50;;;14.10;96.00;;;;;;10232532;28;20043;-62
2022/09/26 22:47:32;;;;;;;3.05;0.93;;;14.10;96.00;;;;;;10236174;28;20027;-61
2022/09/26 22:52:33;;;;;;;3.42;0.60;;;14.10;96.00;;;;;;10215296;28;20047;-61
2022/09/26 22:57:34;;;;;;;0.73;0.40;;;14.10;96.00;;;;;;10233292;28;20023;-61
2022/09/26 23:02:36;;;;;;;2.53;0.50;;;14.10;96.00;;;;;;10229319;28;20031;-62
2022/09/26 23:07:37;;;;;;;1.92;0.52;;;14.10;96.00;;;;;;10233169;28;20072;-62
2022/09/26 23:12:39;;;;;;;2.17;0.50;;;14.00;96.00;;;;;;10233630;28;20508;-61
2022/09/26 23:17:39;;;;;;;3.28;1.30;;;14.00;96.00;;;;;;10233071;28;20035;-62
2022/09/26 23:22:40;;;;;;;0.80;0.50;;;14.00;96.00;;;;;;10236069;28;20503;-62
2022/09/26 23:27:41;;;;;;;3.33;0.68;;;14.00;95.90;;;;;;10237063;28;20139;-61
2022/09/26 23:32:41;;;;;;;2.10;0.60;;;14.00;96.00;;;;;;10239070;28;20193;-61
2022/09/26 23:37:42;;;;;;;0.70;0.38;;;14.00;96.00;;;;;;10240636;28;20038;-62
2022/09/26 23:42:43;;;;;;;1.85;0.40;;;14.00;96.00;;;;;;10241021;28;20175;-62
2022/09/26 23:47:44;;;;;;;2.70;0.45;;;14.00;96.00;;;;;;10239117;28;20038;-61
2022/09/26 23:52:45;;;;;;;0.68;0.32;;;14.00;96.00;;;;;;10241959;28;20046;-62
2022/09/26 23:57:46;;;;;;;1.70;0.40;;;13.90;95.90;;;;;;10242497;28;20031;-61
